sensor_id;sensor_type;location;lat;lon;timestamp;pressure;altitude;pressure_sealevel;temperature;humidity
18533;BME280;9396;51.510;11.934;2023-04-02T00:01:36;99924.19;;;5.73;100.00
18533;BME280;9396;51.510;11.934;2023-04-02T00:04:15;99934.25;;;5.58;100.00
18533;BME280;9396;51.510;11.934;2023-04-02T00:06:50;99939.94;;;5.54;100.00
18533;BME280;9396;51.510;11.934;2023-04-02T00:09:30;99939.31;;;5.71;100.00
18533;BME280;9396;51.510;11.934;2023-04-02T00:11:58;99943.25;;;5.46;100.00
18533;BME280;9396;51.510;11.934;2023-04-02T00:14:44;99946.38;;;5.70;100.00
18533;BME280;9396;51.510;11.934;2023-04-02T00:17:12;99956.59;;;5.54;100.00
18533;BME280;9396;51.510;11.934;2023-04-02T00:19:44;99957.38;;;5.45;100.00
18533;BME280;9396;51.510;11.934;2023-04-02T00:22:15;99960.38;;;5.31;100.00
18533;BME280;9396;51.510;11.934;2023-04-02T00:24:49;99969.41;;;5.28;100.00
18533;BME280;9396;51.510;11.934;2023-04-02T00:27:17;99971.81;;;5.41;100.00
18533;BME280;9396;51.510;11.934;2023-04-02T00:29:46;99977.09;;;5.41;100.00
18533;BME280;9396;51.510;11.934;2023-04-02T00:32:17;99977.97;;;5.51;100.00
18533;BME280;9396;51.510;11.934;2023-04-02T00:34:45;99973.53;;;5.52;100.00
18533;BME280;9396;51.510;11.934;2023-04-02T00:37:15;99982.03;;;5.55;100.00
18533;BME280;9396;51.510;11.934;2023-04-02T00:39:51;99984.72;;;5.74;100.00
18533;BME280;9396;51.510;11.934;2023-04-02T00:42:19;99944.41;;;5.32;100.00
18533;BME280;9396;51.510;11.934;2023-04-02T00:44:47;99993.72;;;5.62;100.00
18533;BME280;9396;51.510;11.934;2023-04-02T00:47:18;100003.63;;;5.49;100.00
18533;BME280;9396;51.510;11.934;2023-04-02T00:49:46;100003.56;;;5.39;100.00
18533;BME280;9396;51.510;11.934;2023-04-02T00:52:16;100003.06;;;5.45;100.00
18533;BME280;9396;51.510;11.934;2023-04-02T00:54:49;100017.22;;;5.24;100.00
18533;BME280;9396;51.510;11.934;2023-04-02T00:57:19;100026.75;;;5.15;100.00
18533;BME280;9396;51.510;11.934;2023-04-02T00:59:54;100026.84;;;5.25;100.00
18533;BME280;9396;51.510;11.934;2023-04-02T01:02:28;100030.25;;;5.16;100.00
18533;BME280;9396;51.510;11.934;2023-04-02T01:04:56;100022.66;;;5.02;100.00
18533;BME280;9396;51.510;11.934;2023-04-02T01:07:36;100029.75;;;5.11;100.00
18533;BME280;9396;51.510;11.934;2023-04-02T01:10:19;100041.41;;;5.29;100.00
18533;BME280;9396;51.510;11.934;2023-04-02T01:12:53;100047.13;;;5.34;100.00
18533;BME280;9396;51.510;11.934;2023-04-02T01:15:27;100044.44;;;5.24;100.00
18533;BME280;9396;51.510;11.934;2023-04-02T01:18:20;100057.50;;;5.26;100.00
18533;BME280;9396;51.510;11.934;2023-04-02T01:21:02;100063.50;;;4.65;100.00
18533;BME280;9396;51.510;11.934;2023-04-02T01:23:37;100048.66;;;4.75;100.00
18533;BME280;9396;51.510;11.934;2023-04-02T01:26:14;100064.28;;;4.87;100.00
18533;BME280;9396;51.510;11.934;2023-04-02T01:28:54;100063.47;;;4.76;100.00
18533;BME280;9396;51.510;11.934;2023-04-02T01:31:25;100071.84;;;4.81;100.00
18533;BME280;9396;51.510;11.934;2023-04-02T01:33:52;100083.75;;;4.75;100.00
18533;BME280;9396;51.510;11.934;2023-04-02T01:36:24;100090.34;;;4.70;100.00
18533;BME280;9396;51.510;11.934;2023-04-02T01:38:56;100094.59;;;4.82;100.00
18533;BME280;9396;51.510;11.934;2023-04-02T01:41:31;100094.34;;;4.85;100.00
18533;BME280;9396;51.510;11.934;2023-04-02T01:44:05;100103.72;;;4.78;100.00
18533;BME280;9396;51.510;11.934;2023-04-02T01:46:35;100109.22;;;4.86;100.00
18533;BME280;9396;51.510;11.934;2023-04-02T01:49:11;100115.28;;;4.44;100.00
18533;BME280;9396;51.510;11.934;2023-04-02T01:51:41;100117.03;;;4.65;100.00
18533;BME280;9396;51.510;11.934;2023-04-02T01:54:09;100119.34;;;4.59;100.00
18533;BME280;9396;51.510;11.934;2023-04-02T01:56:36;100131.06;;;4.44;100.00
18533;BME280;9396;51.510;11.934;2023-04-02T01:59:06;100128.09;;;4.26;100.00
18533;BME280;9396;51.510;11.934;2023-04-02T02:01:38;99981.28;;;3.76;100.00
18533;BME280;9396;51.510;11.934;2023-04-02T02:04:10;100150.22;;;4.57;100.00
18533;BME280;9396;51.510;11.934;2023-04-02T02:06:37;100134.47;;;4.77;100.00
18533;BME280;9396;51.510;11.934;2023-04-02T02:09:05;100134.25;;;4.80;100.00
18533;BME280;9396;51.510;11.934;2023-04-02T02:11:32;100150.34;;;4.55;100.00
18533;BME280;9396;51.510;11.934;2023-04-02T02:14:08;100151.19;;;4.56;100.00
18533;BME280;9396;51.510;11.934;2023-04-02T02:16:38;100158.84;;;4.48;100.00
18533;BME280;9396;51.510;11.934;2023-04-02T02:19:15;100167.81;;;4.56;100.00
18533;BME280;9396;51.510;11.934;2023-04-02T02:21:48;100171.28;;;4.57;100.00
18533;BME280;9396;51.510;11.934;2023-04-02T02:24:19;100168.19;;;4.52;100.00
18533;BME280;9396;51.510;11.934;2023-04-02T02:26:53;100166.28;;;4.54;100.00
18533;BME280;9396;51.510;11.934;2023-04-02T02:29:25;100184.13;;;4.50;100.00
18533;BME280;9396;51.510;11.934;2023-04-02T02:31:55;100189.72;;;4.34;100.00
18533;BME280;9396;51.510;11.934;2023-04-02T02:34:28;100204.91;;;4.42;100.00
18533;BME280;9396;51.510;11.934;2023-04-02T02:37:00;100195.69;;;4.36;100.00
18533;BME280;9396;51.510;11.934;2023-04-02T02:39:32;100208.63;;;4.28;100.00
18533;BME280;9396;51.510;11.934;2023-04-02T02:42:03;100217.25;;;4.19;100.00
18533;BME280;9396;51.510;11.934;2023-04-02T02:44:36;100212.56;;;4.12;100.00
18533;BME280;9396;51.510;11.934;2023-04-02T02:47:09;100222.88;;;4.26;100.00
18533;BME280;9396;51.510;11.934;2023-04-02T02:49:40;100231.84;;;4.23;100.00
18533;BME280;9396;51.510;11.934;2023-04-02T02:52:14;100223.97;;;4.23;100.00
18533;BME280;9396;51.510;11.934;2023-04-02T02:54:43;100240.34;;;4.38;100.00
18533;BME280;9396;51.510;11.934;2023-04-02T02:57:16;100238.31;;;4.19;100.00
18533;BME280;9396;51.510;11.934;2023-04-02T02:59:45;100241.56;;;4.34;100.00
18533;BME280;9396;51.510;11.934;2023-04-02T03:02:13;100138.28;;;3.41;100.00
18533;BME280;9396;51.510;11.934;2023-04-02T03:04:40;100245.00;;;4.23;100.00
18533;BME280;9396;51.510;11.934;2023-04-02T03:07:11;100255.44;;;4.47;100.00
18533;BME280;9396;51.510;11.934;2023-04-02T03:09:44;100251.38;;;4.43;100.00
18533;BME280;9396;51.510;11.934;2023-04-02T03:12:27;100259.00;;;4.24;100.00
18533;BME280;9396;51.510;11.934;2023-04-02T03:15:01;100268.59;;;4.36;100.00
18533;BME280;9396;51.510;11.934;2023-04-02T03:17:33;100267.50;;;4.38;100.00
18533;BME280;9396;51.510;11.934;2023-04-02T03:20:09;100275.19;;;4.53;100.00
18533;BME280;9396;51.510;11.934;2023-04-02T03:22:42;100278.16;;;4.37;100.00
18533;BME280;9396;51.510;11.934;2023-04-02T03:25:21;100284.72;;;4.20;100.00
18533;BME280;9396;51.510;11.934;2023-04-02T03:27:54;100286.81;;;4.04;100.00
18533;BME280;9396;51.510;11.934;2023-04-02T03:30:28;100290.19;;;4.06;100.00
18533;BME280;9396;51.510;11.934;2023-04-02T03:32:58;100293.47;;;4.21;100.00
18533;BME280;9396;51.510;11.934;2023-04-02T03:35:29;100295.94;;;4.11;100.00
18533;BME280;9396;51.510;11.934;2023-04-02T03:38:02;100305.97;;;4.06;100.00
18533;BME280;9396;51.510;11.934;2023-04-02T03:40:33;100314.31;;;4.35;100.00
18533;BME280;9396;51.510;11.934;2023-04-02T03:43:04;100319.94;;;4.42;100.00
18533;BME280;9396;51.510;11.934;2023-04-02T03:45:42;100323.75;;;4.26;100.00
18533;BME280;9396;51.510;11.934;2023-04-02T03:48:12;100330.47;;;4.30;100.00
18533;BME280;9396;51.510;11.934;2023-04-02T03:50:44;100328.59;;;4.09;100.00
18533;BME280;9396;51.510;11.934;2023-04-02T03:53:13;100343.91;;;4.04;100.00
18533;BME280;9396;51.510;11.934;2023-04-02T03:55:40;100346.13;;;4.32;100.00
18533;BME280;9396;51.510;11.934;2023-04-02T03:58:14;100344.69;;;4.28;100.00
18533;BME280;9396;51.510;11.934;2023-04-02T04:00:48;100353.31;;;4.30;100.00
18533;BME280;9396;51.510;11.934;2023-04-02T04:03:20;100351.97;;;4.24;100.00
18533;BME280;9396;51.510;11.934;2023-04-02T04:05:50;100362.31;;;4.04;100.00
18533;BME280;9396;51.510;11.934;2023-04-02T04:08:21;100375.00;;;4.10;100.00
18533;BME280;9396;51.510;11.934;2023-04-02T04:10:50;100382.81;;;3.88;100.00
18533;BME280;9396;51.510;11.934;2023-04-02T04:13:21;100387.16;;;4.23;100.00
18533;BME280;9396;51.510;11.934;2023-04-02T04:15:54;100387.13;;;4.12;100.00
18533;BME280;9396;51.510;11.934;2023-04-02T04:18:28;100396.91;;;4.10;100.00
18533;BME280;9396;51.510;11.934;2023-04-02T04:21:00;100401.19;;;4.00;100.00
18533;BME280;9396;51.510;11.934;2023-04-02T04:23:30;100414.28;;;3.89;100.00
18533;BME280;9396;51.510;11.934;2023-04-02T04:25:59;100412.31;;;4.04;100.00
18533;BME280;9396;51.510;11.934;2023-04-02T04:28:33;100417.41;;;3.94;100.00
18533;BME280;9396;51.510;11.934;2023-04-02T04:31:12;100423.41;;;3.96;100.00
18533;BME280;9396;51.510;11.934;2023-04-02T04:33:44;100434.47;;;3.89;100.00
18533;BME280;9396;51.510;11.934;2023-04-02T04:36:20;100442.41;;;3.76;100.00
18533;BME280;9396;51.510;11.934;2023-04-02T04:38:54;100448.25;;;3.92;100.00
18533;BME280;9396;51.510;11.934;2023-04-02T04:41:27;100408.59;;;3.59;100.00
18533;BME280;9396;51.510;11.934;2023-04-02T04:43:59;100406.00;;;3.34;100.00
18533;BME280;9396;51.510;11.934;2023-04-02T04:46:31;100472.84;;;3.55;100.00
18533;BME280;9396;51.510;11.934;2023-04-02T04:49:01;100475.25;;;3.71;100.00
18533;BME280;9396;51.510;11.934;2023-04-02T04:51:34;100488.00;;;3.64;100.00
18533;BME280;9396;51.510;11.934;2023-04-02T04:54:03;100491.56;;;3.63;100.00
18533;BME280;9396;51.510;11.934;2023-04-02T04:56:31;100496.88;;;3.87;100.00
18533;BME280;9396;51.510;11.934;2023-04-02T04:59:00;100492.59;;;4.09;100.00
18533;BME280;9396;51.510;11.934;2023-04-02T05:01:35;100498.97;;;3.94;100.00
18533;BME280;9396;51.510;11.934;2023-04-02T05:04:05;100498.44;;;4.02;100.00
18533;BME280;9396;51.510;11.934;2023-04-02T05:06:39;100516.38;;;3.72;100.00
18533;BME280;9396;51.510;11.934;2023-04-02T05:09:14;100515.25;;;3.51;100.00
18533;BME280;9396;51.510;11.934;2023-04-02T05:11:44;100520.59;;;3.49;100.00
18533;BME280;9396;51.510;11.934;2023-04-02T05:14:19;100528.78;;;3.82;100.00
18533;BME280;9396;51.510;11.934;2023-04-02T05:16:53;100532.78;;;3.75;100.00
18533;BME280;9396;51.510;11.934;2023-04-02T05:19:24;100536.72;;;4.06;100.00
18533;BME280;9396;51.510;11.934;2023-04-02T05:21:59;100536.16;;;3.77;100.00
18533;BME280;9396;51.510;11.934;2023-04-02T05:24:42;100551.22;;;3.63;100.00
18533;BME280;9396;51.510;11.934;2023-04-02T05:27:19;100559.16;;;3.86;100.00
18533;BME280;9396;51.510;11.934;2023-04-02T05:29:50;100559.09;;;3.75;100.00
18533;BME280;9396;51.510;11.934;2023-04-02T05:32:25;100572.78;;;3.80;100.00
18533;BME280;9396;51.510;11.934;2023-04-02T05:34:56;100574.25;;;3.84;100.00
18533;BME280;9396;51.510;11.934;2023-04-02T05:37:26;100584.03;;;3.82;100.00
18533;BME280;9396;51.510;11.934;2023-04-02T05:39:57;100580.44;;;3.58;100.00
18533;BME280;9396;51.510;11.934;2023-04-02T05:42:26;100583.91;;;3.46;100.00
18533;BME280;9396;51.510;11.934;2023-04-02T05:45:03;100589.28;;;3.70;100.00
18533;BME280;9396;51.510;11.934;2023-04-02T05:47:35;100593.69;;;3.44;100.00
18533;BME280;9396;51.510;11.934;2023-04-02T05:50:22;100609.91;;;3.38;100.00
18533;BME280;9396;51.510;11.934;2023-04-02T05:52:53;100595.88;;;3.25;100.00
18533;BME280;9396;51.510;11.934;2023-04-02T05:55:44;100617.78;;;3.25;100.00
18533;BME280;9396;51.510;11.934;2023-04-02T05:58:19;100618.97;;;3.07;100.00
18533;BME280;9396;51.510;11.934;2023-04-02T06:00:56;100621.50;;;3.09;100.00
18533;BME280;9396;51.510;11.934;2023-04-02T06:03:30;100623.66;;;3.29;100.00
18533;BME280;9396;51.510;11.934;2023-04-02T06:06:02;100631.66;;;3.40;100.00
18533;BME280;9396;51.510;11.934;2023-04-02T06:08:35;100632.72;;;3.50;100.00
18533;BME280;9396;51.510;11.934;2023-04-02T06:11:07;100634.38;;;3.39;100.00
18533;BME280;9396;51.510;11.934;2023-04-02T06:13:35;100653.94;;;3.47;100.00
18533;BME280;9396;51.510;11.934;2023-04-02T06:16:02;100612.53;;;3.38;100.00
18533;BME280;9396;51.510;11.934;2023-04-02T06:18:32;100660.88;;;3.36;100.00
18533;BME280;9396;51.510;11.934;2023-04-02T06:21:00;100662.50;;;3.51;100.00
18533;BME280;9396;51.510;11.934;2023-04-02T06:23:31;100669.81;;;3.33;100.00
18533;BME280;9396;51.510;11.934;2023-04-02T06:26:02;100673.63;;;3.42;100.00
18533;BME280;9396;51.510;11.934;2023-04-02T06:28:35;100677.28;;;3.39;100.00
18533;BME280;9396;51.510;11.934;2023-04-02T06:31:07;100683.41;;;3.40;100.00
18533;BME280;9396;51.510;11.934;2023-04-02T06:33:36;100691.28;;;3.40;100.00
18533;BME280;9396;51.510;11.934;2023-04-02T06:36:04;100699.81;;;3.43;100.00
18533;BME280;9396;51.510;11.934;2023-04-02T06:38:34;100702.91;;;3.62;100.00
18533;BME280;9396;51.510;11.934;2023-04-02T06:41:04;100710.56;;;3.65;100.00
18533;BME280;9396;51.510;11.934;2023-04-02T06:43:37;100698.44;;;3.38;100.00
18533;BME280;9396;51.510;11.934;2023-04-02T06:46:10;100722.78;;;3.54;100.00
18533;BME280;9396;51.510;11.934;2023-04-02T06:48:42;100731.22;;;3.71;100.00
18533;BME280;9396;51.510;11.934;2023-04-02T06:51:11;100734.69;;;3.72;100.00
18533;BME280;9396;51.510;11.934;2023-04-02T06:53:43;100742.59;;;3.72;100.00
18533;BME280;9396;51.510;11.934;2023-04-02T06:56:19;100744.41;;;3.45;98.68
18533;BME280;9396;51.510;11.934;2023-04-02T06:58:47;100751.72;;;3.66;100.00
18533;BME280;9396;51.510;11.934;2023-04-02T07:01:16;100758.34;;;3.59;99.59
18533;BME280;9396;51.510;11.934;2023-04-02T07:03:46;100762.72;;;3.46;99.48
18533;BME280;9396;51.510;11.934;2023-04-02T07:06:15;100771.28;;;3.62;99.62
18533;BME280;9396;51.510;11.934;2023-04-02T07:08:41;100773.53;;;3.68;99.96
18533;BME280;9396;51.510;11.934;2023-04-02T07:11:08;100782.28;;;3.94;100.00
18533;BME280;9396;51.510;11.934;2023-04-02T07:13:37;100787.63;;;3.80;98.48
18533;BME280;9396;51.510;11.934;2023-04-02T07:16:05;100790.41;;;4.03;98.68
18533;BME280;9396;51.510;11.934;2023-04-02T07:18:33;100787.53;;;3.81;97.83
18533;BME280;9396;51.510;11.934;2023-04-02T07:21:01;100797.47;;;3.64;97.63
18533;BME280;9396;51.510;11.934;2023-04-02T07:23:28;100799.25;;;3.63;96.63
18533;BME280;9396;51.510;11.934;2023-04-02T07:25:55;100805.56;;;3.34;97.22
18533;BME280;9396;51.510;11.934;2023-04-02T07:28:23;100808.69;;;3.80;98.05
18533;BME280;9396;51.510;11.934;2023-04-02T07:30:50;100814.53;;;3.71;98.49
18533;BME280;9396;51.510;11.934;2023-04-02T07:33:19;100811.72;;;3.47;97.89
18533;BME280;9396;51.510;11.934;2023-04-02T07:35:47;100824.19;;;3.31;97.80
18533;BME280;9396;51.510;11.934;2023-04-02T07:38:15;100813.66;;;3.31;98.28
18533;BME280;9396;51.510;11.934;2023-04-02T07:40:42;100822.16;;;3.49;99.34
18533;BME280;9396;51.510;11.934;2023-04-02T07:43:09;100832.91;;;3.58;96.70
18533;BME280;9396;51.510;11.934;2023-04-02T07:45:36;100827.09;;;3.80;96.95
18533;BME280;9396;51.510;11.934;2023-04-02T07:48:03;100833.50;;;3.76;96.04
18533;BME280;9396;51.510;11.934;2023-04-02T07:50:30;100833.00;;;3.83;96.26
18533;BME280;9396;51.510;11.934;2023-04-02T07:52:57;100842.28;;;3.62;95.80
18533;BME280;9396;51.510;11.934;2023-04-02T07:55:25;100848.09;;;3.67;96.37
18533;BME280;9396;51.510;11.934;2023-04-02T07:57:53;100854.47;;;3.77;95.35
18533;BME280;9396;51.510;11.934;2023-04-02T08:00:22;100855.53;;;3.87;95.05
18533;BME280;9396;51.510;11.934;2023-04-02T08:02:50;100863.69;;;3.97;94.61
18533;BME280;9396;51.510;11.934;2023-04-02T08:05:17;100865.91;;;4.03;94.31
18533;BME280;9396;51.510;11.934;2023-04-02T08:07:51;100871.78;;;4.06;94.87
18533;BME280;9396;51.510;11.934;2023-04-02T08:10:18;100868.47;;;4.29;95.51
18533;BME280;9396;51.510;11.934;2023-04-02T08:12:46;100879.91;;;4.03;94.56
18533;BME280;9396;51.510;11.934;2023-04-02T08:15:14;100879.31;;;4.12;95.54
18533;BME280;9396;51.510;11.934;2023-04-02T08:17:41;100881.47;;;4.32;94.81
18533;BME280;9396;51.510;11.934;2023-04-02T08:20:14;100887.00;;;4.15;94.58
18533;BME280;9396;51.510;11.934;2023-04-02T08:22:42;100891.75;;;4.23;95.97
18533;BME280;9396;51.510;11.934;2023-04-02T08:25:09;100894.63;;;4.32;96.85
18533;BME280;9396;51.510;11.934;2023-04-02T08:27:36;100892.03;;;4.18;96.63
18533;BME280;9396;51.510;11.934;2023-04-02T08:30:05;100900.56;;;4.22;95.73
18533;BME280;9396;51.510;11.934;2023-04-02T08:32:33;100910.47;;;4.18;95.40
18533;BME280;9396;51.510;11.934;2023-04-02T08:35:00;100918.69;;;4.14;95.16
18533;BME280;9396;51.510;11.934;2023-04-02T08:37:26;100925.25;;;4.33;95.47
18533;BME280;9396;51.510;11.934;2023-04-02T08:39:53;100918.94;;;4.23;93.74
18533;BME280;9396;51.510;11.934;2023-04-02T08:42:23;100921.22;;;4.15;93.97
18533;BME280;9396;51.510;11.934;2023-04-02T08:45:02;100930.38;;;4.22;94.71
18533;BME280;9396;51.510;11.934;2023-04-02T08:47:35;100927.59;;;4.11;93.63
18533;BME280;9396;51.510;11.934;2023-04-02T08:50:12;100932.53;;;4.30;94.17
18533;BME280;9396;51.510;11.934;2023-04-02T08:52:41;100942.56;;;4.38;94.29
18533;BME280;9396;51.510;11.934;2023-04-02T08:55:17;100942.66;;;4.09;93.58
18533;BME280;9396;51.510;11.934;2023-04-02T08:57:53;100949.34;;;4.27;94.12
18533;BME280;9396;51.510;11.934;2023-04-02T09:00:26;100951.91;;;4.42;94.15
18533;BME280;9396;51.510;11.934;2023-04-02T09:03:01;100952.50;;;4.47;93.57
18533;BME280;9396;51.510;11.934;2023-04-02T09:05:32;100962.19;;;4.19;94.19
18533;BME280;9396;51.510;11.934;2023-04-02T09:08:03;100957.81;;;4.32;94.63
18533;BME280;9396;51.510;11.934;2023-04-02T09:10:36;100958.69;;;4.19;93.58
18533;BME280;9396;51.510;11.934;2023-04-02T09:13:14;100967.03;;;4.25;93.77
18533;BME280;9396;51.510;11.934;2023-04-02T09:15:42;100961.63;;;4.41;94.48
18533;BME280;9396;51.510;11.934;2023-04-02T09:18:13;100967.69;;;4.56;93.60
18533;BME280;9396;51.510;11.934;2023-04-02T09:20:41;100975.66;;;4.54;94.48
18533;BME280;9396;51.510;11.934;2023-04-02T09:23:13;100962.53;;;4.27;92.79
18533;BME280;9396;51.510;11.934;2023-04-02T09:25:43;100997.38;;;4.58;93.11
18533;BME280;9396;51.510;11.934;2023-04-02T09:28:10;100989.81;;;4.66;92.36
18533;BME280;9396;51.510;11.934;2023-04-02T09:30:48;100982.13;;;4.23;92.43
18533;BME280;9396;51.510;11.934;2023-04-02T09:33:39;100938.56;;;4.05;92.41
18533;BME280;9396;51.510;11.934;2023-04-02T09:36:08;100999.38;;;4.27;93.00
18533;BME280;9396;51.510;11.934;2023-04-02T09:38:55;101002.44;;;4.48;92.24
18533;BME280;9396;51.510;11.934;2023-04-02T09:41:26;100998.97;;;4.60;93.34
18533;BME280;9396;51.510;11.934;2023-04-02T09:44:12;101006.31;;;4.82;92.99
18533;BME280;9396;51.510;11.934;2023-04-02T09:46:48;101030.03;;;4.82;92.67
18533;BME280;9396;51.510;11.934;2023-04-02T09:49:17;101018.00;;;4.78;91.01
18533;BME280;9396;51.510;11.934;2023-04-02T09:51:44;101026.63;;;4.80;90.53
18533;BME280;9396;51.510;11.934;2023-04-02T09:54:14;101020.88;;;4.87;92.14
18533;BME280;9396;51.510;11.934;2023-04-02T09:56:58;101028.03;;;4.85;91.26
18533;BME280;9396;51.510;11.934;2023-04-02T09:59:25;101036.56;;;4.89;89.95
18533;BME280;9396;51.510;11.934;2023-04-02T10:01:57;101033.69;;;4.79;89.71
18533;BME280;9396;51.510;11.934;2023-04-02T10:04:39;101040.50;;;5.08;90.96
18533;BME280;9396;51.510;11.934;2023-04-02T10:07:29;101038.09;;;5.05;89.92
18533;BME280;9396;51.510;11.934;2023-04-02T10:09:57;101044.75;;;4.84;88.56
18533;BME280;9396;51.510;11.934;2023-04-02T10:12:25;101046.63;;;5.09;88.22
18533;BME280;9396;51.510;11.934;2023-04-02T10:14:53;101044.09;;;4.95;88.17
18533;BME280;9396;51.510;11.934;2023-04-02T10:17:23;101038.41;;;5.26;88.58
18533;BME280;9396;51.510;11.934;2023-04-02T10:19:56;101049.91;;;5.50;89.51
18533;BME280;9396;51.510;11.934;2023-04-02T10:22:27;101059.94;;;5.32;88.96
18533;BME280;9396;51.510;11.934;2023-04-02T10:24:53;101059.31;;;5.41;88.67
18533;BME280;9396;51.510;11.934;2023-04-02T10:27:27;101058.25;;;5.31;90.40
18533;BME280;9396;51.510;11.934;2023-04-02T10:30:13;101066.81;;;5.47;90.24
18533;BME280;9396;51.510;11.934;2023-04-02T10:32:43;101065.22;;;5.70;90.56
18533;BME280;9396;51.510;11.934;2023-04-02T10:35:22;101071.97;;;5.62;89.62
18533;BME280;9396;51.510;11.934;2023-04-02T10:40:58;101078.84;;;5.39;90.04
18533;BME280;9396;51.510;11.934;2023-04-02T10:43:41;100935.50;;;4.11;89.36
18533;BME280;9396;51.510;11.934;2023-04-02T10:46:13;101086.53;;;4.90;89.83
18533;BME280;9396;51.510;11.934;2023-04-02T10:48:51;101086.63;;;5.28;91.98
18533;BME280;9396;51.510;11.934;2023-04-02T10:51:28;101098.56;;;5.33;90.64
18533;BME280;9396;51.510;11.934;2023-04-02T10:54:04;101094.03;;;5.48;90.37
18533;BME280;9396;51.510;11.934;2023-04-02T10:56:33;101084.53;;;5.71;89.74
18533;BME280;9396;51.510;11.934;2023-04-02T10:59:04;101094.03;;;5.73;90.28
18533;BME280;9396;51.510;11.934;2023-04-02T11:01:33;101101.03;;;5.87;90.11
18533;BME280;9396;51.510;11.934;2023-04-02T11:04:04;101105.66;;;6.08;89.23
18533;BME280;9396;51.510;11.934;2023-04-02T11:06:38;101104.91;;;5.81;89.02
18533;BME280;9396;51.510;11.934;2023-04-02T11:09:13;101109.25;;;5.95;88.91
18533;BME280;9396;51.510;11.934;2023-04-02T11:11:43;101109.81;;;5.87;87.64
18533;BME280;9396;51.510;11.934;2023-04-02T11:14:14;101105.56;;;5.85;87.77
18533;BME280;9396;51.510;11.934;2023-04-02T11:16:42;101127.69;;;5.70;88.20
18533;BME280;9396;51.510;11.934;2023-04-02T11:19:26;101124.13;;;5.58;89.24
18533;BME280;9396;51.510;11.934;2023-04-02T11:21:55;101127.44;;;5.87;90.44
18533;BME280;9396;51.510;11.934;2023-04-02T11:24:30;101056.16;;;5.62;87.91
18533;BME280;9396;51.510;11.934;2023-04-02T11:27:04;101127.31;;;5.88;89.32
18533;BME280;9396;51.510;11.934;2023-04-02T11:29:32;101127.81;;;6.18;89.18
18533;BME280;9396;51.510;11.934;2023-04-02T11:35:36;101125.69;;;6.72;89.28
18533;BME280;9396;51.510;11.934;2023-04-02T11:41:09;101141.97;;;6.66;88.42
18533;BME280;9396;51.510;11.934;2023-04-02T11:43:49;101148.41;;;6.38;87.42
18533;BME280;9396;51.510;11.934;2023-04-02T11:46:49;101139.47;;;6.52;87.23
18533;BME280;9396;51.510;11.934;2023-04-02T11:49:35;101148.78;;;6.45;86.98
18533;BME280;9396;51.510;11.934;2023-04-02T11:52:09;101147.25;;;6.42;87.86
18533;BME280;9396;51.510;11.934;2023-04-02T11:54:54;101142.66;;;6.44;86.14
18533;BME280;9396;51.510;11.934;2023-04-02T11:57:32;101151.03;;;6.38;86.05
18533;BME280;9396;51.510;11.934;2023-04-02T12:00:20;101153.00;;;6.60;86.93
18533;BME280;9396;51.510;11.934;2023-04-02T12:05:39;101154.94;;;7.05;84.65
18533;BME280;9396;51.510;11.934;2023-04-02T12:08:22;101154.38;;;6.89;83.47
18533;BME280;9396;51.510;11.934;2023-04-02T12:10:55;101164.81;;;6.67;82.94
18533;BME280;9396;51.510;11.934;2023-04-02T12:13:51;101156.81;;;6.92;83.39
18533;BME280;9396;51.510;11.934;2023-04-02T12:16:18;101160.56;;;7.01;82.67
18533;BME280;9396;51.510;11.934;2023-04-02T12:18:46;101155.28;;;7.24;81.16
18533;BME280;9396;51.510;11.934;2023-04-02T12:21:16;101167.16;;;6.95;83.74
18533;BME280;9396;51.510;11.934;2023-04-02T12:23:45;101176.28;;;6.79;81.88
18533;BME280;9396;51.510;11.934;2023-04-02T12:26:31;101173.25;;;6.72;83.42
18533;BME280;9396;51.510;11.934;2023-04-02T12:29:31;101182.50;;;6.90;81.97
18533;BME280;9396;51.510;11.934;2023-04-02T12:31:58;101180.84;;;6.77;82.11
18533;BME280;9396;51.510;11.934;2023-04-02T12:34:27;101029.38;;;6.04;82.84
18533;BME280;9396;51.510;11.934;2023-04-02T12:36:56;101188.75;;;6.89;82.14
18533;BME280;9396;51.510;11.934;2023-04-02T12:39:24;101177.78;;;7.06;80.55
18533;BME280;9396;51.510;11.934;2023-04-02T12:41:52;101185.63;;;7.08;83.83
18533;BME280;9396;51.510;11.934;2023-04-02T12:44:20;101188.66;;;7.14;82.14
18533;BME280;9396;51.510;11.934;2023-04-02T12:46:48;101193.22;;;6.89;81.25
18533;BME280;9396;51.510;11.934;2023-04-02T12:49:24;101187.09;;;7.12;82.58
18533;BME280;9396;51.510;11.934;2023-04-02T12:51:53;101191.22;;;7.03;80.79
18533;BME280;9396;51.510;11.934;2023-04-02T12:54:21;101194.44;;;6.96;79.99
18533;BME280;9396;51.510;11.934;2023-04-02T12:56:47;101200.84;;;6.81;81.61
18533;BME280;9396;51.510;11.934;2023-04-02T12:59:27;101197.34;;;6.80;80.97
18533;BME280;9396;51.510;11.934;2023-04-02T13:01:56;101197.41;;;6.91;81.12
18533;BME280;9396;51.510;11.934;2023-04-02T13:04:23;101202.66;;;7.04;81.28
18533;BME280;9396;51.510;11.934;2023-04-02T13:06:51;101201.72;;;7.05;81.53
18533;BME280;9396;51.510;11.934;2023-04-02T13:09:29;101202.97;;;7.12;81.42
18533;BME280;9396;51.510;11.934;2023-04-02T13:11:56;101212.91;;;7.32;81.36
18533;BME280;9396;51.510;11.934;2023-04-02T13:14:25;101215.72;;;7.41;81.16
18533;BME280;9396;51.510;11.934;2023-04-02T13:16:53;101219.91;;;7.33;80.80
18533;BME280;9396;51.510;11.934;2023-04-02T13:19:23;101211.53;;;7.26;78.98
18533;BME280;9396;51.510;11.934;2023-04-02T13:21:50;101222.09;;;7.15;78.27
18533;BME280;9396;51.510;11.934;2023-04-02T13:24:18;101220.69;;;7.22;78.93
18533;BME280;9396;51.510;11.934;2023-04-02T13:26:46;101220.03;;;7.31;80.39
18533;BME280;9396;51.510;11.934;2023-04-02T13:29:20;101219.47;;;7.50;79.96
18533;BME280;9396;51.510;11.934;2023-04-02T13:31:49;101218.41;;;7.52;79.24
18533;BME280;9396;51.510;11.934;2023-04-02T13:34:16;101237.47;;;6.98;78.93